Davenport, NE (68335)

3:03 PM CST on February 19, 2017 (GMT -0600)
288 W 4th | | Change Station

Elev 1755 ft 40.20 °N, 98.07 °W | Updated 23 seconds ago

Partly Cloudy
Partly Cloudy
65.0 °F
Feels Like 65.0 °F
N
9.0
Wind Variable Wind from SE

Today
High -- | Low -- °F
--% Chance of Precip.
Yesterday
High -- | Low -- °F
Precip. -- in
Pressure 29.78 in
Visibility 10.0 miles
Clouds Clear
Dew Point 52 °F
Humidity 63%
Rainfall 0.00 in
Snow Depth Not available.
7:18 AM 6:11 PM
Last Quarter, 40% visible
METAR KHJH 192055Z AUTO 16015G21KT 10SM CLR 19/11 A2978 RMK AO2 T01910110
Pressure 29.78 in
Visibility 10.0 miles
Clouds Clear
Dew Point 52 °F
Humidity 63%
Rainfall 0.00 in
Snow Depth Not available.
7:18 AM 6:11 PM
Last Quarter, 40% visible
METAR KHJH 192055Z AUTO 16015G21KT 10SM CLR 19/11 A2978 RMK AO2 T01910110

Get Your Daily Forecast Email!

Thanks for signing up!

Be on the lookout for a verification email in your inbox.

You'll start receiving the daily forecast at 8 AM.

×

10-Day Weather Forecast

Almanac

Astronomy

Feb. 19, 2017 Rise Set
Actual Time
Civil Twilight
Nautical Twilight
Astronomical Twilight
Moon
Length of Visible Light
Length of Day
Tomorrow will be .
, % of the Moon is Illuminated

Today's Extremes

State Highs State Lows

Community

WunderPhotos

Upload Photos

1,962,540 photos uploaded!

WunderBlog® & News

Nearby

Air Quality

  Air Quality AQ Index Pollutant
Not available.

Snow Depth

Station Depth Elevation

Earthquake Activity

City Distance Mag. Time & Date
Minimum magnitude displayed is 2.5.

Coastal Water Temperatures

Place Temperature

Stations

Nearby Weather Stations

Station Location Temp. Windchill Dew Point Humidity Wind Precip. Elev Updated Type
                   

Watches & Warnings

There are currently no watches in effect.